Catania, Italy

10:07 PM CEST on March 30, 2015 (GMT +0200)
Zona Industriale - Catania | | Change Station
CLOSE
Current Station
Personal Weather Station
Location: (*Meteosicilia*), Sicily
Elevation: 60 ft
Nearby Weather Stations
Active Advisory: Wind

Elev 60 ft 37.45 °N, 15.04 °E | Updated 8 seconds ago

Partly Cloudy
Partly Cloudy
59.3 °F
Feels Like 59.3 °F
N
4.0
Wind Variable Wind from SW
Gusts 12.0 mph

Today
High -- | Low -- °F
--% Chance of Precip.
Yesterday
High -- | Low -- °F
Precip. -- in
6:49 AM 7:20 PM
Waxing Gibbous, 82% visible
Pressure 29.74 in
Visibility 6.2 miles
Clouds Few 7000 ft
Dew Point 50 °F
Humidity 72%
Rainfall 0.00 in
Snow Depth Not available.
UV 0 out of 12
Pollen Not available.
Air Quality Not available.
Flu Activity Not available.
METAR LICC 301950Z 28017G28KT 9999 FEW070 17/05 Q1007

More Conditions Fewer Conditions

Pressure 29.74 in
Visibility 6.2 miles
Clouds Few 7000 ft
Dew Point 50 °F
Humidity 72%
Rainfall 0.00 in
Snow Depth Not available.
UV 0 out of 12
Pollen Not available.
Air Quality Not available.
Flu Activity Not available.
METAR LICC 301950Z 28017G28KT 9999 FEW070 17/05 Q1007

More Conditions Fewer Conditions

10-Day Weather Forecast

Almanac

Astronomy

Mar. 30, 2015 Rise Set
Actual Time
Civil Twilight
Nautical Twilight
Astronomical Twilight
Moon
Length of Visible Light
Length of Day
Tomorrow will be .
, % of the Moon is Illuminated

Today's Extremes

Country Highs Country Lows

Community

WunderPhotos

Upload Photos

1,809,578 photos uploaded!

WunderBlogs® & News

Nearby

Air Quality

  Air Quality AQ Index Pollutant
Not available.

Snow Depth

Station Depth Elevation

Earthquake Activity

City Distance Mag. Time & Date
Minimum magnitude displayed is 2.5.

Coastal Water Temperatures

Place Temperature

Stations

Nearby Weather Stations

Station Location Temp. Windchill Dew Point Humidity Wind Precip. Elev Updated Type